Latest Weather Observations for Argyle

IDW60801

Issued at 6:04 am WST Friday 22 January 2021 (issued every 10 minutes, with the page automatically refreshed every 10 minutes)

About weather observations | Map of weather stations | Latest weather observations for WA | Other Formats
Station Details ID: 002064 Name: ARGYLE AERODROME Lat: -16.64 Lon: 128.45 Height: 164.0 m
Data from the previous 72 hours. | See also: Recent months at Argyle
Date/Time
WST
Temp
°C
App
Temp
°C
Dew
Point
°C
Rel
Hum
%
Delta-T
°C
Wind Press
QNH
hPa
Press
MSL
hPa
Rain since
9am
mm
Dir  Spd
km/h
Gust
km/h
Spd
kts
Gust
kts
22/06:00am 27.8 31.9 23.2 76 3.2 E 7 9 4 5 1009.8 1008.5 0.2
22/05:30am 27.5 31.5 23.1 77 3.0 E 7 9 4 5 1009.6 1008.3 0.2
22/05:00am 27.8 31.7 23.0 75 3.3 E 7 11 4 6 1009.0 1007.7 0.2
22/04:30am 28.1 33.1 23.9 78 2.9 NNW 4 7 2 4 1008.8 1007.5 0.2
22/04:00am 28.6 33.4 24.2 77 3.1 WNW 6 7 3 4 1008.8 1007.5 0.2
22/03:30am 28.5 33.1 24.1 77 3.1 WNW 7 9 4 5 1008.5 1007.2 0.2
22/03:00am 28.6 34.4 23.9 75 3.3 CALM 0 0 0 0 1008.4 1007.1 0.2
22/02:30am 28.5 33.3 24.1 77 3.1 WSW 6 9 3 5 1008.1 1006.8 0.2
22/02:00am 28.4 33.1 24.0 77 3.1 NNW 6 7 3 4 1008.1 1006.8 0.2
22/01:30am 28.4 32.5 24.0 77 3.1 N 9 11 5 6 1007.8 1006.5 0.2
22/01:00am 28.6 32.3 23.9 75 3.3 NNW 11 17 6 9 1007.7 1006.4 0.2
22/12:30am 28.7 32.7 23.8 75 3.4 NNE 9 15 5 8 1008.2 1006.9 0.2
22/12:00am 29.0 32.8 23.4 72 3.9 N 9 13 5 7 1008.8 1007.5 0.2
 
Date/Time
WST
Temp
°C
App
Temp
°C
Dew
Point
°C
Rel
Hum
%
Delta-T
°C
Wind Press
QNH
hPa
Press
MSL
hPa
Rain since
9am
mm
Dir  Spd
km/h
Gust
km/h
Spd
kts
Gust
kts
21/11:30pm 29.2 32.6 23.4 71 4.0 NNE 11 15 6 8 1009.4 1008.1 0.2
21/11:00pm 29.2 33.0 23.4 71 4.0 NNE 9 13 5 7 1009.6 1008.3 0.2
21/10:30pm 29.4 33.3 23.6 71 4.0 NNE 9 15 5 8 1009.7 1008.4 0.2
21/10:00pm 29.6 33.0 23.3 69 4.4 NNE 11 17 6 9 1009.7 1008.4 0.2
21/09:30pm 29.9 33.1 23.1 67 4.7 N 11 15 6 8 1009.8 1008.5 0.2
21/09:00pm 30.1 32.0 22.8 65 5.0 N 17 22 9 12 1009.4 1008.1 0.2
21/08:30pm 30.4 33.0 22.6 63 5.3 N 13 19 7 10 1009.3 1008.0 0.2
21/08:00pm 30.4 32.8 22.3 62 5.5 NNE 13 17 7 9 1009.2 1007.9 0.2
21/07:30pm 30.9 32.0 21.9 58 6.1 NNW 19 28 10 15 1008.5 1007.2 0.2
21/07:00pm 31.1 32.0 21.9 58 6.3 NNW 20 30 11 16 1008.2 1006.9 0.2
21/06:30pm 31.3 32.1 21.8 57 6.5 NNW 20 26 11 14 1007.7 1006.4 0.2
21/06:00pm 31.6 32.5 21.5 55 6.9 N 19 24 10 13 1007.3 1006.0 0.2
21/05:30pm 32.3 32.1 20.5 49 7.9 N 22 32 12 17 1006.9 1005.5 0.2
21/05:00pm 32.3 31.5 20.9 51 7.7 NNW 26 35 14 19 1006.5 1005.1 0.2
21/04:30pm 32.5 31.9 20.4 49 8.1 N 24 33 13 18 1005.9 1004.5 0.0
21/04:00pm 32.8 32.0 20.0 47 8.6 N 24 32 13 17 1005.9 1004.5 0.0
21/03:30pm 33.2 32.6 19.7 45 9.0 N 22 32 12 17 1005.7 1004.3 0.0
21/03:00pm 32.1 33.8 23.1 59 6.2 NNW 19 22 10 12 1006.2 1004.8 0.0
21/02:44pm 30.4 29.7 23.6 67 4.7 N 33 52 18 28 1006.1 - 0.0
21/02:35pm 33.5 31.8 20.6 46 8.7 N 30 52 16 28 1005.8 1004.4 0.0
21/02:30pm 35.1 35.3 20.6 42 9.8 NNE 20 35 11 19 1006.0 1004.6 0.0
21/02:00pm 36.7 37.3 21.3 40 10.6 NE 20 39 11 21 1006.3 1004.9 0.0
21/01:30pm 35.8 35.2 20.5 41 10.3 NE 24 41 13 22 1006.8 1005.4 0.0
21/01:00pm 35.8 36.2 20.9 42 10.1 NNE 20 30 11 16 1007.1 1005.8 0.0
21/12:30pm 35.8 37.5 22.4 46 9.3 NNE 17 30 9 16 1007.6 1006.3 0.0
21/12:00pm 35.0 35.9 21.6 45 9.2 NNE 19 28 10 15 1008.2 1006.9 0.0
21/11:30am 34.4 36.6 21.8 48 8.6 NE 13 24 7 13 1008.5 1007.2 0.0
21/11:00am 34.3 35.9 21.4 47 8.8 NNE 15 24 8 13 1009.2 1007.9 0.0
21/10:30am 33.7 36.2 22.5 52 7.7 NNE 13 20 7 11 1009.9 1008.6 0.0
21/10:00am 33.1 35.0 22.8 54 7.1 N 17 24 9 13 1010.8 1009.5 0.0
21/09:30am 32.7 36.2 23.6 58 6.4 NNE 11 19 6 10 1011.4 1010.1 0.0
21/09:00am 30.7 34.2 22.8 62 5.4 N 9 15 5 8 1011.8 1010.5 0.0
21/08:30am 29.6 33.8 23.1 68 4.5 N 6 11 3 6 1011.8 1010.5 0.0
21/08:00am 28.3 32.1 22.8 72 3.8 N 7 11 4 6 1011.6 1010.3 0.0
21/07:30am 27.9 31.6 22.6 73 3.6 N 7 11 4 6 1011.3 1010.0 0.0
21/07:00am 27.5 31.0 22.9 76 3.1 N 9 11 5 6 1011.3 1010.0 0.0
21/06:30am 26.8 31.1 23.3 81 2.4 NNE 6 9 3 5 1010.9 1009.6 0.0
21/06:00am 26.4 30.4 23.1 82 2.3 NNE 7 11 4 6 1010.8 1009.5 0.0
21/05:30am 26.5 30.7 23.4 83 2.1 NNE 7 9 4 5 1010.7 1009.4 0.0
21/05:00am 26.5 31.5 23.2 82 2.3 E 2 7 1 4 1010.0 1008.7 0.0
21/04:30am 26.7 30.9 23.2 81 2.4 NE 6 7 3 4 1009.8 1008.5 0.0
21/04:00am 27.0 32.4 23.3 80 2.5 CALM 0 0 0 0 1009.6 1008.3 0.0
21/03:30am 27.0 32.3 23.0 79 2.7 CALM 0 0 0 0 1009.5 1008.2 0.0
21/03:00am 26.8 31.5 22.6 78 2.9 N 2 7 1 4 1009.7 1008.4 0.0
21/02:30am 26.8 31.9 22.6 78 2.9 CALM 0 0 0 0 1009.8 1008.5 0.0
21/02:00am 26.9 31.0 22.9 79 2.7 ESE 6 7 3 4 1009.6 1008.3 0.0
21/01:30am 26.9 30.9 22.7 78 2.9 ESE 6 7 3 4 1009.6 1008.3 0.0
21/01:00am 26.9 31.4 22.9 79 2.7 SW 4 7 2 4 1009.9 1008.6 0.0
21/12:30am 27.1 32.5 23.3 80 2.6 CALM 0 0 0 0 1010.5 1009.2 0.0
21/12:00am 27.0 31.3 23.3 80 2.5 NW 6 7 3 4 1011.1 1009.8 0.0
 
Date/Time
WST
Temp
°C
App
Temp
°C
Dew
Point
°C
Rel
Hum
%
Delta-T
°C
Wind Press
QNH
hPa
Press
MSL
hPa
Rain since
9am
mm
Dir  Spd
km/h
Gust
km/h
Spd
kts
Gust
kts
20/11:30pm 27.2 32.5 23.0 78 2.9 CALM 0 0 0 0 1011.6 1010.3 0.0
20/11:00pm 27.2 31.4 23.2 79 2.7 SW 6 7 3 4 1011.7 1010.4 0.0
20/10:30pm 27.1 31.0 22.9 78 2.9 SW 7 9 4 5 1011.9 1010.6 0.0
20/10:00pm 27.1 31.4 23.3 80 2.6 W 6 9 3 5 1012.1 1010.7 0.0
20/09:30pm 27.0 32.4 23.3 80 2.5 CALM 0 0 0 0 1011.9 1010.6 0.0
20/09:00pm 27.0 31.1 23.0 79 2.7 NNE 6 7 3 4 1011.7 1010.4 0.0
20/08:30pm 27.1 31.2 22.9 78 2.9 NE 6 11 3 6 1011.3 1010.0 0.0
20/08:00pm 27.1 30.0 23.1 79 2.7 N 13 17 7 9 1010.7 1009.4 0.0
20/07:30pm 27.3 31.5 23.1 78 2.9 WNW 6 9 3 5 1010.3 1009.0 0.0
20/07:00pm 26.9 30.7 23.4 81 2.4 W 9 13 5 7 1009.8 1008.5 0.0
20/06:30pm 26.6 29.5 23.1 81 2.4 NW 13 17 7 9 1010.1 1008.8 0.0
20/06:00pm 26.5 27.7 23.8 85 1.9 NNW 24 33 13 18 1010.2 1008.9 0.0
20/05:30pm 27.5 26.3 22.7 75 3.3 NNW 33 48 18 26 1009.7 1008.4 0.0
20/05:12pm 30.1 29.3 20.9 57 6.2 N 26 61 14 33 1008.8 1007.5 0.0
20/05:10pm 31.2 31.2 20.2 52 7.3 NNE 20 52 11 28 1008.8 1007.5 0.0
20/05:00pm 33.1 34.5 20.3 47 8.6 NNE 13 20 7 11 1008.2 1006.9 0.0
20/04:30pm 33.4 33.7 19.5 44 9.2 NE 17 28 9 15 1007.9 1006.6 0.0
20/04:00pm 33.7 35.2 19.7 43 9.3 NNE 11 17 6 9 1007.6 1006.3 0.0
20/03:30pm 33.8 33.5 18.3 39 10.1 NNE 17 26 9 14 1007.6 1006.3 0.0
20/03:00pm 33.2 34.1 20.0 45 8.8 NE 15 26 8 14 1008.0 1006.7 0.0
20/02:30pm 32.7 34.6 20.6 49 8.1 NNE 11 20 6 11 1008.1 1006.8 0.0
20/02:00pm 32.5 33.2 20.4 49 8.1 NE 17 24 9 13 1008.2 1006.9 0.0
20/01:30pm 32.5 33.3 20.7 49 7.9 NE 17 24 9 13 1008.4 1007.1 0.0
20/01:00pm 32.5 33.5 21.0 50 7.8 NNE 17 24 9 13 1008.6 1007.3 0.0
20/12:30pm 33.0 34.8 21.2 50 8.0 NNE 13 22 7 12 1008.7 1007.4 0.0
20/12:00pm 33.1 34.6 21.3 50 8.0 NE 15 20 8 11 1008.9 1007.6 0.0
20/11:30am 33.3 34.8 20.5 47 8.6 NE 13 20 7 11 1009.1 1007.8 0.0
20/11:00am 32.4 34.3 21.3 52 7.5 ENE 13 19 7 10 1009.1 1007.8 0.0
20/10:30am 31.4 33.7 21.3 55 6.8 NNE 11 15 6 8 1009.6 1008.3 0.0
20/10:00am 30.9 33.8 21.7 58 6.2 NE 9 15 5 8 1010.4 1009.1 0.0
20/09:30am 30.4 32.8 21.5 59 6.0 NE 11 17 6 9 1010.8 1009.5 0.0
20/09:00am 30.0 32.7 21.4 60 5.8 N 9 20 5 11 1011.3 1010.0 0.0
20/08:30am 29.3 31.7 21.5 63 5.3 N 11 19 6 10 1011.4 1010.1 -
20/08:00am 29.2 32.5 21.4 63 5.3 ENE 6 11 3 6 1011.6 1010.3 -
20/07:30am 28.3 32.5 21.8 68 4.4 SE 2 7 1 4 1011.6 1010.3 -
20/07:00am 27.5 31.1 22.0 72 3.7 SE 6 7 3 4 1011.3 1010.0 -
20/06:30am 26.9 30.4 22.1 75 3.2 SW 7 9 4 5 1011.1 1009.8 -
20/06:00am 26.4 30.0 22.0 77 3.0 W 6 7 3 4 1011.0 1009.7 -
20/05:30am 26.2 29.7 21.8 77 3.0 NW 6 7 3 4 1010.7 1009.4 -
20/05:00am 26.2 29.7 22.1 78 2.8 NNW 7 9 4 5 1010.5 1009.2 -
20/04:30am 26.2 30.7 21.6 76 3.1 CALM 0 0 0 0 1010.0 1008.7 -
20/04:00am 26.2 30.0 21.6 76 3.1 E 4 6 2 3 1009.5 1008.2 -
20/03:30am 26.2 29.0 21.6 76 3.1 E 9 13 5 7 1009.2 1007.9 -
20/03:00am 26.3 29.0 21.3 74 3.3 E 9 13 5 7 1008.9 1007.6 -
20/02:30am 26.4 29.1 21.4 74 3.3 E 9 13 5 7 1009.0 1007.7 -
20/02:00am 26.7 28.8 21.7 74 3.4 E 13 17 7 9 1008.9 1007.6 -
20/01:30am 26.5 30.0 22.1 77 3.0 NNE 7 13 4 7 1008.8 1007.5 -
20/01:00am 26.6 29.5 22.4 78 2.8 NNE 11 20 6 11 1009.1 1007.8 -
20/12:30am 26.7 28.6 22.1 76 3.1 NNE 15 22 8 12 1009.3 1008.0 -
20/12:00am 27.0 30.1 22.2 75 3.3 NE 9 15 5 8 1009.9 1008.6 -
 
Date/Time
WST
Temp
°C
App
Temp
°C
Dew
Point
°C
Rel
Hum
%
Delta-T
°C
Wind Press
QNH
hPa
Press
MSL
hPa
Rain since
9am
mm
Dir  Spd
km/h
Gust
km/h
Spd
kts
Gust
kts
19/11:30pm 27.2 29.6 22.2 74 3.4 NE 13 19 7 10 1010.4 1009.1 -
19/11:00pm 27.6 30.0 22.3 73 3.6 NE 13 17 7 9 1010.9 1009.6 -
19/10:30pm 27.7 30.3 22.6 74 3.5 ENE 13 20 7 11 1011.4 1010.1 -
19/10:00pm 28.0 29.9 22.7 73 3.6 NE 17 28 9 15 1011.2 1009.9 -
19/09:30pm 28.3 28.9 22.8 72 3.8 NE 24 37 13 20 1010.7 1009.4 -
19/09:08pm 28.9 28.6 22.6 69 4.3 NE 28 46 15 25 1010.2 1008.9 -
19/09:00pm 29.2 27.9 22.4 66 4.6 NE 33 46 18 25 1010.1 1008.8 -
19/08:30pm 31.6 28.9 19.2 47 8.2 ENE 32 54 17 29 1009.7 1008.4 -
19/08:25pm 32.3 29.8 18.1 42 9.2 ENE 28 54 15 29 1009.5 - 0.0
19/08:23pm 32.9 30.4 17.1 39 10.1 E 26 54 14 29 1009.5 1008.2 -
19/08:00pm 33.9 32.4 15.4 33 11.6 E 17 22 9 12 1009.1 1007.8 -
19/07:30pm 34.1 33.3 15.1 32 11.9 E 13 22 7 12 1008.8 1007.5 -
19/07:00pm 34.3 33.3 14.7 30 12.2 E 13 17 7 9 1008.5 1007.2 -
19/05:30pm 33.8 33.1 15.3 33 11.6 NNE 13 20 7 11 1007.5 1006.2 0.0
19/05:00pm 33.9 32.3 14.9 32 11.9 NNE 17 24 9 13 1007.0 1005.7 0.0
19/04:30pm 34.7 33.9 15.1 31 12.3 NNE 13 20 7 11 1006.5 1005.1 0.0
19/04:00pm 34.9 33.0 14.2 28 12.8 NNE 17 26 9 14 1006.3 1004.9 0.0
19/03:30pm 36.2 33.7 13.6 25 13.9 ENE 19 24 10 13 1006.3 1004.9 0.0
19/03:00pm 36.2 34.5 13.6 25 14.0 NE 15 20 8 11 1006.4 1005.0 0.0
19/02:30pm 36.1 33.8 13.0 25 14.1 ENE 17 24 9 13 1006.5 1005.1 0.0
19/02:00pm 36.5 33.2 12.7 24 14.5 E 22 35 12 19 1007.0 1005.7 0.0
19/01:30pm 36.3 32.9 12.5 24 14.5 E 22 33 12 18 1007.2 1005.9 0.0
19/01:00pm 36.4 33.8 13.2 25 14.3 E 19 26 10 14 1007.6 1006.3 0.0
19/12:30pm 36.7 35.2 14.1 26 14.1 ESE 15 22 8 12 1007.9 1006.6 0.0
19/12:00pm 35.3 33.2 14.6 29 12.9 SE 19 32 10 17 1008.2 1006.9 0.0
19/11:30am 35.4 34.4 14.6 28 13.0 SE 13 20 7 11 1008.5 1007.2 0.0
19/11:00am 34.7 34.7 15.1 31 12.3 ENE 9 17 5 9 1008.7 1007.4 0.0
19/10:30am 34.2 33.2 15.6 32 11.7 ESE 15 22 8 12 1009.0 1007.7 0.0
19/10:00am 33.7 32.6 15.2 33 11.6 E 15 22 8 12 1009.2 1007.9 0.0
19/09:30am 34.4 32.7 15.8 33 11.8 E 19 26 10 14 1009.5 1008.2 0.0
19/09:00am 33.3 32.1 16.2 36 10.8 E 17 22 9 12 1010.0 1008.7 0.0
19/08:30am 32.2 32.1 16.9 40 9.8 ESE 13 20 7 11 1010.2 1008.9 0.0
19/08:00am 31.6 31.7 16.4 40 9.6 E 11 15 6 8 1010.1 1008.8 0.0
19/07:30am 30.5 31.5 16.9 44 8.6 NE 7 11 4 6 1010.1 1008.8 0.0
19/07:00am 29.0 30.0 17.8 50 7.2 NNE 9 13 5 7 1010.0 1008.7 0.0
19/06:30am 28.6 29.0 17.2 50 7.2 NNE 11 15 6 8 1009.8 1008.5 0.0

Other formats

Comma delimited format used in spreadsheet applications
http://www.bom.gov.au/fwo/IDW60801/IDW60801.94217.axf

JavaScript Object Notation format (JSON) in row-major order
http://www.bom.gov.au/fwo/IDW60801/IDW60801.94217.json

Data quality

Most of these data are generated automatically and are frequently updated. Quality checks on data are not normally performed. It is possible for incorrect values to appear. Refer to information at About Latest Weather Observations and please check the disclaimer before using these data.